createdAt,value
2022-08-26T00:01:53.190Z,5.50
2022-08-26T00:04:21.614Z,5.93
2022-08-26T00:06:49.319Z,6.50
2022-08-26T00:09:16.947Z,6.00
2022-08-26T00:11:44.732Z,5.80
2022-08-26T00:14:13.623Z,6.10
2022-08-26T00:16:48.133Z,6.23
2022-08-26T00:19:16.347Z,5.60
2022-08-26T00:21:44.372Z,6.23
2022-08-26T00:24:13.113Z,6.23
2022-08-26T00:26:41.352Z,6.40
2022-08-26T00:29:09.441Z,6.40
2022-08-26T00:31:37.397Z,6.07
2022-08-26T00:34:06.426Z,6.80
2022-08-26T00:36:33.995Z,6.27
2022-08-26T00:39:01.858Z,6.30
2022-08-26T00:41:29.530Z,6.73
2022-08-26T00:43:57.424Z,6.80
2022-08-26T00:46:28.722Z,7.00
2022-08-26T00:48:59.935Z,6.17
2022-08-26T00:51:30.174Z,6.77
2022-08-26T00:54:00.111Z,6.40
2022-08-26T00:56:35.486Z,6.40
2022-08-26T00:59:04.247Z,7.57
2022-08-26T01:01:32.105Z,7.40
2022-08-26T01:04:01.116Z,7.77
2022-08-26T01:06:31.261Z,7.30
2022-08-26T01:08:58.873Z,7.73
2022-08-26T01:11:26.719Z,7.23
2022-08-26T01:13:55.634Z,7.03
2022-08-26T01:16:24.741Z,7.47
2022-08-26T01:18:53.759Z,8.03
2022-08-26T01:21:28.111Z,7.70
2022-08-26T01:23:58.977Z,7.37
2022-08-26T01:26:29.463Z,7.43
2022-08-26T01:28:58.608Z,7.80
2022-08-26T01:31:28.294Z,7.50
2022-08-26T01:33:58.299Z,7.10
2022-08-26T01:36:27.705Z,7.07
2022-08-26T01:38:55.295Z,7.27
2022-08-26T01:41:27.487Z,6.90
2022-08-26T01:43:57.256Z,6.97
2022-08-26T01:46:27.203Z,7.20
2022-08-26T01:48:56.031Z,7.30
2022-08-26T01:51:24.844Z,7.77
2022-08-26T01:53:52.439Z,8.03
2022-08-26T01:56:22.404Z,7.47
2022-08-26T01:58:53.039Z,7.63
2022-08-26T02:01:22.003Z,7.90
2022-08-26T02:03:52.290Z,7.60
2022-08-26T02:06:21.140Z,7.50
2022-08-26T02:08:49.535Z,7.40
2022-08-26T02:11:18.426Z,7.73
2022-08-26T02:13:47.434Z,8.33
2022-08-26T02:16:18.821Z,8.70
2022-08-26T02:18:47.101Z,9.37
2022-08-26T02:21:14.743Z,9.23
2022-08-26T02:23:42.501Z,8.37
2022-08-26T02:26:11.371Z,7.70
2022-08-26T02:28:52.163Z,7.80
2022-08-26T02:31:21.131Z,7.57
2022-08-26T02:33:50.094Z,8.07
2022-08-26T02:36:20.142Z,8.63
2022-08-26T02:38:47.746Z,8.97
2022-08-26T02:41:15.395Z,8.47
2022-08-26T02:43:45.672Z,8.27
2022-08-26T02:46:13.346Z,8.37
2022-08-26T02:48:50.984Z,8.40
2022-08-26T02:51:18.768Z,8.70
2022-08-26T02:53:46.333Z,8.80
2022-08-26T02:56:13.883Z,8.43
2022-08-26T02:58:41.447Z,8.30
2022-08-26T03:01:09.258Z,8.40
2022-08-26T03:03:36.884Z,7.20
2022-08-26T03:06:05.937Z,8.27
2022-08-26T03:08:33.706Z,7.97
2022-08-26T03:11:01.573Z,7.80
2022-08-26T03:13:29.536Z,7.67
2022-08-26T03:15:57.534Z,7.50
2022-08-26T03:18:25.137Z,7.50
2022-08-26T03:20:52.717Z,7.00
2022-08-26T03:23:21.717Z,7.50
2022-08-26T03:25:49.909Z,7.23
2022-08-26T03:28:18.122Z,8.17
2022-08-26T03:30:45.932Z,8.10
2022-08-26T03:33:14.534Z,7.77
2022-08-26T03:35:43.359Z,7.20
2022-08-26T03:38:11.444Z,7.03
2022-08-26T03:40:41.917Z,7.27
2022-08-26T03:43:10.196Z,7.30
2022-08-26T03:45:38.615Z,6.93
2022-08-26T03:48:06.611Z,6.97
2022-08-26T03:50:35.763Z,7.30
2022-08-26T03:53:04.684Z,7.80
2022-08-26T03:55:34.988Z,7.27
2022-08-26T03:58:04.244Z,7.20
2022-08-26T04:00:31.846Z,7.17
2022-08-26T04:03:02.013Z,7.70
2022-08-26T04:05:29.698Z,7.73
2022-08-26T04:07:57.257Z,8.27
2022-08-26T04:10:29.110Z,8.10
2022-08-26T04:12:58.962Z,7.37
2022-08-26T04:15:28.412Z,7.60
2022-08-26T04:17:57.551Z,7.70
2022-08-26T04:20:25.467Z,7.80
2022-08-26T04:22:53.058Z,8.03
2022-08-26T04:25:21.199Z,8.13
2022-08-26T04:27:48.758Z,8.40
2022-08-26T04:30:18.301Z,7.57
2022-08-26T04:32:47.292Z,7.13
2022-08-26T04:35:15.051Z,7.80
2022-08-26T04:37:43.872Z,7.77
2022-08-26T04:40:11.870Z,7.50
2022-08-26T04:42:39.598Z,8.60
2022-08-26T04:45:10.046Z,8.67
2022-08-26T04:47:38.211Z,8.63
2022-08-26T04:50:08.248Z,8.10
2022-08-26T04:52:38.499Z,8.07
2022-08-26T04:55:08.373Z,7.90
2022-08-26T04:57:36.346Z,8.37
2022-08-26T05:00:04.791Z,8.13
2022-08-26T05:02:32.464Z,8.70
2022-08-26T05:05:00.443Z,8.73
2022-08-26T05:07:29.782Z,8.80
2022-08-26T05:10:00.145Z,7.83
2022-08-26T05:12:28.840Z,8.90
2022-08-26T05:14:56.480Z,8.47
2022-08-26T05:17:25.024Z,8.57
2022-08-26T05:19:52.596Z,8.27
2022-08-26T05:22:20.198Z,8.30
2022-08-26T05:24:49.387Z,8.47
2022-08-26T05:27:16.963Z,8.33
2022-08-26T05:29:45.335Z,8.30
2022-08-26T05:32:13.703Z,8.50
2022-08-26T05:34:42.937Z,8.67
2022-08-26T05:37:10.636Z,8.60
2022-08-26T05:39:43.435Z,8.20
2022-08-26T05:42:17.736Z,8.90
2022-08-26T05:44:53.893Z,8.50
2022-08-26T05:47:23.576Z,8.77
2022-08-26T05:49:51.663Z,8.60
2022-08-26T05:52:19.435Z,8.10
2022-08-26T05:54:47.706Z,8.63
2022-08-26T05:57:16.756Z,9.03
2022-08-26T05:59:46.197Z,8.10
2022-08-26T06:02:13.746Z,8.23
2022-08-26T06:04:41.355Z,8.47
2022-08-26T06:07:12.290Z,8.57
2022-08-26T06:09:41.387Z,8.43
2022-08-26T06:12:09.003Z,8.23
2022-08-26T06:14:37.931Z,8.27
2022-08-26T06:17:05.495Z,8.27
2022-08-26T06:19:34.425Z,8.60
2022-08-26T06:22:23.526Z,9.37
2022-08-26T06:25:23.188Z,8.30
2022-08-26T06:27:51.136Z,8.67
2022-08-26T06:30:20.217Z,8.23
2022-08-26T06:32:50.351Z,8.53
2022-08-26T06:35:17.941Z,8.37
2022-08-26T06:37:46.167Z,8.43
2022-08-26T06:40:13.768Z,9.23
2022-08-26T06:42:41.386Z,8.63
2022-08-26T06:45:09.332Z,8.27
2022-08-26T06:47:40.145Z,8.57
2022-08-26T06:50:08.192Z,9.07
2022-08-26T06:52:35.772Z,8.37
2022-08-26T06:55:03.350Z,9.00
2022-08-26T06:57:32.776Z,9.03
2022-08-26T07:00:02.642Z,9.60
2022-08-26T07:02:30.239Z,9.10
2022-08-26T07:04:59.351Z,8.90
2022-08-26T07:07:26.906Z,9.70
2022-08-26T07:09:54.847Z,10.13
2022-08-26T07:12:22.411Z,9.33
2022-08-26T07:14:49.992Z,10.27
2022-08-26T07:17:17.558Z,10.17
2022-08-26T07:19:48.532Z,10.23
2022-08-26T07:22:18.681Z,9.73
2022-08-26T07:24:46.371Z,10.03
2022-08-26T07:27:15.228Z,11.37
2022-08-26T07:29:43.377Z,10.90
2022-08-26T07:32:13.046Z,10.77
2022-08-26T07:34:40.846Z,9.37
2022-08-26T07:37:09.519Z,9.17
2022-08-26T07:39:38.637Z,10.17
2022-08-26T07:42:08.660Z,9.70
2022-08-26T07:44:36.680Z,9.90
2022-08-26T07:47:10.263Z,9.63
2022-08-26T07:49:53.291Z,9.20
2022-08-26T07:52:26.214Z,9.60
2022-08-26T07:54:55.798Z,9.07
2022-08-26T07:57:24.271Z,8.73
2022-08-26T07:59:52.075Z,9.03
2022-08-26T08:02:21.661Z,9.20
2022-08-26T08:04:49.282Z,8.67
2022-08-26T08:07:16.867Z,7.53
2022-08-26T08:09:44.563Z,8.70
2022-08-26T08:12:14.112Z,8.60
2022-08-26T08:14:45.103Z,8.30
2022-08-26T08:19:45.195Z,9.03
2022-08-26T08:22:17.290Z,8.33
2022-08-26T08:24:49.915Z,8.60
2022-08-26T08:27:24.098Z,7.83
2022-08-26T08:29:54.118Z,8.30
2022-08-26T08:32:22.151Z,8.80
2022-08-26T08:34:49.737Z,8.03
2022-08-26T08:37:17.655Z,9.67
2022-08-26T08:39:45.377Z,8.83
2022-08-26T08:42:29.332Z,8.57
2022-08-26T08:44:58.372Z,8.07
2022-08-26T08:47:31.582Z,7.50
2022-08-26T08:50:00.120Z,7.80
2022-08-26T08:52:29.835Z,7.73
2022-08-26T08:54:58.090Z,8.60
2022-08-26T08:57:32.491Z,8.00
2022-08-26T09:00:07.544Z,8.07
2022-08-26T09:02:38.421Z,8.00
2022-08-26T09:05:15.137Z,7.57
2022-08-26T09:07:47.006Z,7.57
2022-08-26T09:10:20.076Z,8.53
2022-08-26T09:12:49.110Z,8.83
2022-08-26T09:15:17.999Z,8.20
2022-08-26T09:17:49.215Z,8.75
2022-08-26T09:20:19.427Z,7.32
2022-08-26T09:22:47.089Z,8.20
2022-08-26T09:25:15.452Z,8.70
2022-08-26T09:27:44.569Z,8.63
2022-08-26T09:30:14.809Z,8.32
2022-08-26T09:32:42.507Z,8.33
2022-08-26T09:35:11.439Z,8.00
2022-08-26T09:37:40.972Z,8.80
2022-08-26T09:40:17.385Z,9.07
2022-08-26T09:42:45.087Z,8.52
2022-08-26T09:45:15.387Z,7.78
2022-08-26T09:47:53.504Z,8.10
2022-08-26T09:50:27.083Z,8.15
2022-08-26T09:53:14.904Z,7.93
2022-08-26T09:55:43.327Z,8.75
2022-08-26T09:58:14.251Z,7.80
2022-08-26T10:00:44.063Z,8.25
2022-08-26T10:03:17.247Z,7.47
2022-08-26T10:05:47.515Z,7.22
2022-08-26T10:08:22.981Z,8.13
2022-08-26T10:10:53.166Z,7.78
2022-08-26T10:13:24.547Z,7.07
2022-08-26T10:15:58.003Z,7.38
2022-08-26T10:18:34.093Z,8.68
2022-08-26T10:21:05.015Z,7.35
2022-08-26T10:23:37.806Z,7.30
2022-08-26T10:26:09.442Z,7.55
2022-08-26T10:28:40.191Z,6.55
2022-08-26T10:31:14.761Z,6.82
2022-08-26T10:33:43.586Z,7.47
2022-08-26T10:36:39.292Z,6.63
2022-08-26T10:39:16.987Z,7.03
2022-08-26T10:41:46.423Z,7.30
2022-08-26T10:44:15.899Z,7.10
2022-08-26T10:46:46.860Z,7.03
2022-08-26T10:49:17.750Z,7.68
2022-08-26T10:51:49.080Z,6.20
2022-08-26T10:54:20.436Z,6.80
2022-08-26T10:56:53.233Z,5.65
2022-08-26T10:59:24.975Z,5.90
2022-08-26T11:02:03.936Z,5.90
2022-08-26T11:04:47.501Z,5.38
2022-08-26T11:07:34.984Z,5.68
2022-08-26T11:10:04.205Z,5.70
2022-08-26T11:12:51.567Z,6.05
2022-08-26T11:15:39.721Z,5.80
2022-08-26T11:18:09.760Z,5.47
2022-08-26T11:20:42.195Z,5.88
2022-08-26T11:23:28.850Z,5.88
2022-08-26T11:26:16.410Z,5.97
2022-08-26T11:29:03.380Z,5.93
2022-08-26T11:31:52.085Z,5.53
2022-08-26T11:34:41.328Z,5.55
2022-08-26T11:37:13.620Z,4.97
2022-08-26T11:39:53.981Z,5.22
2022-08-26T11:42:30.998Z,5.15
2022-08-26T11:44:59.330Z,5.35
2022-08-26T11:47:30.886Z,5.60
2022-08-26T11:50:10.696Z,5.22
2022-08-26T11:52:38.269Z,5.38
2022-08-26T11:55:07.732Z,5.28
2022-08-26T11:57:40.800Z,4.30
2022-08-26T12:00:12.498Z,4.55
2022-08-26T12:02:42.128Z,4.50
2022-08-26T12:05:13.711Z,5.20
2022-08-26T12:07:42.531Z,4.78
2022-08-26T12:10:11.778Z,4.78
2022-08-26T12:12:40.204Z,4.50
2022-08-26T12:15:13.851Z,4.03
2022-08-26T12:17:42.043Z,4.05
2022-08-26T12:20:19.507Z,4.93
2022-08-26T12:22:48.217Z,4.90
2022-08-26T12:25:22.953Z,6.07
2022-08-26T12:27:53.733Z,6.18
2022-08-26T12:30:23.386Z,5.63
2022-08-26T12:32:57.763Z,5.22
2022-08-26T12:35:28.623Z,5.55
2022-08-26T12:37:57.420Z,5.28
2022-08-26T12:40:36.982Z,5.60
2022-08-26T12:43:05.836Z,5.38
2022-08-26T12:45:34.603Z,5.40
2022-08-26T12:48:03.537Z,5.10
2022-08-26T12:50:33.787Z,5.50
2022-08-26T12:53:02.676Z,5.13
2022-08-26T12:55:38.830Z,4.63
2022-08-26T12:58:14.126Z,4.78
2022-08-26T13:00:42.706Z,5.25
2022-08-26T13:03:29.935Z,4.38
2022-08-26T13:06:15.709Z,4.45
2022-08-26T13:08:44.663Z,4.80
2022-08-26T13:11:14.071Z,4.30
2022-08-26T13:13:41.654Z,4.80
2022-08-26T13:16:09.288Z,4.65
2022-08-26T13:18:36.885Z,4.20
2022-08-26T13:21:12.138Z,4.43
2022-08-26T13:23:42.517Z,4.00
2022-08-26T13:26:10.280Z,4.18
2022-08-26T13:28:38.124Z,4.07
2022-08-26T13:31:06.002Z,3.90
2022-08-26T13:33:33.690Z,3.80
2022-08-26T13:36:01.608Z,4.25
2022-08-26T13:38:33.482Z,3.42
2022-08-26T13:41:02.609Z,3.30
2022-08-26T13:43:30.459Z,3.30
2022-08-26T13:45:58.247Z,3.47
2022-08-26T13:48:26.107Z,3.47
2022-08-26T13:50:53.753Z,3.55
2022-08-26T13:53:21.415Z,3.50
2022-08-26T13:55:50.382Z,3.47
2022-08-26T13:58:18.184Z,3.15
2022-08-26T14:00:45.827Z,3.80
2022-08-26T14:03:14.635Z,3.17
2022-08-26T14:05:42.352Z,3.20
2022-08-26T14:08:10.127Z,3.40
2022-08-26T14:10:37.997Z,3.20
2022-08-26T14:13:07.540Z,2.75
2022-08-26T14:15:35.988Z,3.00
2022-08-26T14:18:04.399Z,2.70
2022-08-26T14:20:34.702Z,2.85
2022-08-26T14:23:13.677Z,2.50
2022-08-26T14:25:48.072Z,2.58
2022-08-26T14:28:17.150Z,2.83
2022-08-26T14:30:45.382Z,2.72
2022-08-26T14:33:14.174Z,2.90
2022-08-26T14:35:47.898Z,2.80
2022-08-26T14:38:16.848Z,2.30
2022-08-26T14:40:45.006Z,2.60
2022-08-26T14:43:15.035Z,3.05
2022-08-26T14:45:45.515Z,3.10
2022-08-26T14:48:13.220Z,2.78
2022-08-26T14:50:40.822Z,2.88
2022-08-26T14:53:25.940Z,3.33
2022-08-26T14:55:53.674Z,2.95
2022-08-26T14:58:21.303Z,3.13
2022-08-26T15:00:50.249Z,3.38
2022-08-26T15:05:48.079Z,3.30
2022-08-26T15:08:16.700Z,3.55
2022-08-26T15:10:44.266Z,3.30
2022-08-26T15:13:12.058Z,3.72
2022-08-26T15:15:39.684Z,3.38
2022-08-26T15:18:09.890Z,3.30
2022-08-26T15:20:38.129Z,3.30
2022-08-26T15:23:07.219Z,3.72
2022-08-26T15:25:35.211Z,3.22
2022-08-26T15:28:02.967Z,3.53
2022-08-26T15:30:31.620Z,3.70
2022-08-26T15:32:59.219Z,3.10
2022-08-26T15:35:28.230Z,3.40
2022-08-26T15:38:00.612Z,3.55
2022-08-26T15:40:28.247Z,3.60
2022-08-26T15:43:11.277Z,3.67
2022-08-26T15:45:43.399Z,3.35
2022-08-26T15:48:11.017Z,3.30
2022-08-26T15:50:49.483Z,5.65
2022-08-26T15:53:17.476Z,7.97
2022-08-26T15:55:45.065Z,4.60
2022-08-26T15:58:12.668Z,3.55
2022-08-26T16:00:40.716Z,3.38
2022-08-26T16:03:08.896Z,3.17
2022-08-26T16:05:37.170Z,3.75
2022-08-26T16:08:07.227Z,3.40
2022-08-26T16:10:34.988Z,3.47
2022-08-26T16:13:03.240Z,3.78
2022-08-26T16:15:30.883Z,3.63
2022-08-26T16:17:59.470Z,3.58
2022-08-26T16:20:27.173Z,3.70
2022-08-26T16:22:54.781Z,3.97
2022-08-26T16:25:23.907Z,3.80
2022-08-26T16:27:52.323Z,3.47
2022-08-26T16:30:20.571Z,3.78
2022-08-26T16:32:48.500Z,3.67
2022-08-26T16:35:16.564Z,3.42
2022-08-26T16:37:44.176Z,3.55
2022-08-26T16:40:12.229Z,4.07
2022-08-26T16:42:41.247Z,4.10
2022-08-26T16:45:09.298Z,4.50
2022-08-26T16:47:36.947Z,4.13
2022-08-26T16:50:05.042Z,4.47
2022-08-26T16:52:32.649Z,4.20
2022-08-26T16:55:00.435Z,4.22
2022-08-26T16:57:28.012Z,4.47
2022-08-26T16:59:57.078Z,4.38
2022-08-26T17:02:24.731Z,4.07
2022-08-26T17:04:52.980Z,4.80
2022-08-26T17:07:20.564Z,5.35
2022-08-26T17:09:48.155Z,4.57
2022-08-26T17:12:15.722Z,3.97
2022-08-26T17:14:43.306Z,3.97
2022-08-26T17:17:14.838Z,3.78
2022-08-26T17:19:47.196Z,4.18
2022-08-26T17:22:15.172Z,4.35
2022-08-26T17:24:42.931Z,4.43
2022-08-26T17:27:10.581Z,4.00
2022-08-26T17:29:38.171Z,4.18
2022-08-26T17:32:05.875Z,4.15
2022-08-26T17:34:34.859Z,4.03
2022-08-26T17:37:02.428Z,4.18
2022-08-26T17:39:30.047Z,4.68
2022-08-26T17:41:57.612Z,4.88
2022-08-26T17:44:25.267Z,5.38
2022-08-26T17:46:52.942Z,5.00
2022-08-26T17:49:20.575Z,5.72
2022-08-26T17:51:50.451Z,5.53
2022-08-26T17:54:18.054Z,5.72
2022-08-26T17:56:45.640Z,5.57
2022-08-26T17:59:13.208Z,5.63
2022-08-26T18:01:40.843Z,5.68
2022-08-26T18:04:08.541Z,5.78
2022-08-26T18:06:36.620Z,5.65
2022-08-26T18:09:05.632Z,5.55
2022-08-26T18:11:33.667Z,5.63
2022-08-26T18:14:01.440Z,5.90
2022-08-26T18:16:31.778Z,5.50
2022-08-26T18:18:59.395Z,6.28
2022-08-26T18:21:28.162Z,5.97
2022-08-26T18:23:55.837Z,5.82
2022-08-26T18:26:25.711Z,5.95
2022-08-26T18:28:53.287Z,6.03
2022-08-26T18:31:21.335Z,5.80
2022-08-26T18:33:49.013Z,5.55
2022-08-26T18:36:18.313Z,5.75
2022-08-26T18:38:46.011Z,5.88
2022-08-26T18:41:13.931Z,5.50
2022-08-26T18:43:43.116Z,5.70
2022-08-26T18:46:11.384Z,5.30
2022-08-26T18:48:40.565Z,5.45
2022-08-26T18:51:08.445Z,5.47
2022-08-26T18:53:41.860Z,5.80
2022-08-26T18:56:09.477Z,5.65
2022-08-26T18:58:37.061Z,5.85
2022-08-26T19:01:06.201Z,5.47
2022-08-26T19:03:33.946Z,5.43
2022-08-26T19:06:01.508Z,5.63
2022-08-26T19:08:29.138Z,5.63
2022-08-26T19:10:57.279Z,6.07
2022-08-26T19:13:24.852Z,5.63
2022-08-26T19:15:52.528Z,5.80
2022-08-26T19:18:21.496Z,5.05
2022-08-26T19:20:49.083Z,5.88
2022-08-26T19:23:30.891Z,5.22
2022-08-26T19:25:59.673Z,5.18
2022-08-26T19:28:27.263Z,5.25
2022-08-26T19:30:55.029Z,5.20
2022-08-26T19:33:23.994Z,5.53
2022-08-26T19:35:51.637Z,5.78
2022-08-26T19:38:19.265Z,5.90
2022-08-26T19:40:47.116Z,6.00
2022-08-26T19:43:14.882Z,6.55
2022-08-26T19:45:44.536Z,6.43
2022-08-26T19:48:12.799Z,6.20
2022-08-26T19:50:42.131Z,6.60
2022-08-26T19:53:10.056Z,6.95
2022-08-26T19:55:37.633Z,6.70
2022-08-26T19:58:05.224Z,6.50
2022-08-26T20:00:34.453Z,6.63
2022-08-26T20:03:02.248Z,6.17
2022-08-26T20:05:30.355Z,6.43
2022-08-26T20:07:59.292Z,6.00
2022-08-26T20:10:26.954Z,5.83
2022-08-26T20:12:54.587Z,5.90
2022-08-26T20:15:22.935Z,5.30
2022-08-26T20:17:51.282Z,5.43
2022-08-26T20:20:36.432Z,6.10
2022-08-26T20:23:05.924Z,7.03
2022-08-26T20:25:34.081Z,6.90
2022-08-26T20:28:01.799Z,6.57
2022-08-26T20:30:29.552Z,7.20
2022-08-26T20:32:57.292Z,7.20
2022-08-26T20:35:24.899Z,6.97
2022-08-26T20:37:52.469Z,6.77
2022-08-26T20:40:22.404Z,6.30
2022-08-26T20:42:50.110Z,6.97
2022-08-26T20:45:17.831Z,6.23
2022-08-26T20:47:45.450Z,6.50
2022-08-26T20:50:13.037Z,5.90
2022-08-26T20:52:40.631Z,6.67
2022-08-26T20:55:08.780Z,7.50
2022-08-26T20:57:37.764Z,7.17
2022-08-26T21:00:06.280Z,7.13
2022-08-26T21:02:34.939Z,6.60
2022-08-26T21:05:02.882Z,6.73
2022-08-26T21:07:30.489Z,8.17
2022-08-26T21:09:58.110Z,7.80
2022-08-26T21:12:27.024Z,7.00
2022-08-26T21:14:56.123Z,6.60
2022-08-26T21:17:23.704Z,6.40
2022-08-26T21:19:51.270Z,6.90
2022-08-26T21:22:18.851Z,6.00
2022-08-26T21:24:47.012Z,5.97
2022-08-26T21:27:14.577Z,6.20
2022-08-26T21:29:49.064Z,6.03
2022-08-26T21:32:20.974Z,5.93
2022-08-26T21:34:48.554Z,6.27
2022-08-26T21:37:16.774Z,5.50
2022-08-26T21:39:44.751Z,5.70
2022-08-26T21:42:12.343Z,5.20
2022-08-26T21:44:39.932Z,5.90
2022-08-26T21:47:07.708Z,5.40
2022-08-26T21:49:36.662Z,5.60
2022-08-26T21:52:05.057Z,5.43
2022-08-26T21:54:32.836Z,5.13
2022-08-26T21:57:00.415Z,5.73
2022-08-26T21:59:28.008Z,6.03
2022-08-26T22:01:55.662Z,5.10
2022-08-26T22:04:23.379Z,5.57
2022-08-26T22:06:53.106Z,5.33
2022-08-26T22:09:21.656Z,4.90
2022-08-26T22:11:49.616Z,4.80
2022-08-26T22:14:18.024Z,4.63
2022-08-26T22:16:48.972Z,5.10
2022-08-26T22:19:19.295Z,4.93
2022-08-26T22:21:49.356Z,5.00
2022-08-26T22:24:18.633Z,4.53
2022-08-26T22:26:47.098Z,4.80
2022-08-26T22:29:14.704Z,5.10
2022-08-26T22:31:42.689Z,4.83
2022-08-26T22:34:11.214Z,5.10
2022-08-26T22:36:43.919Z,4.43
2022-08-26T22:39:11.987Z,4.50
2022-08-26T22:41:41.165Z,5.17
2022-08-26T22:44:08.802Z,4.87
2022-08-26T22:46:38.462Z,4.10
2022-08-26T22:49:06.461Z,4.17
2022-08-26T22:51:34.526Z,4.40
2022-08-26T22:54:02.087Z,4.10
2022-08-26T22:56:29.882Z,4.20
2022-08-26T22:58:58.885Z,4.40
2022-08-26T23:01:26.495Z,4.13
2022-08-26T23:03:54.267Z,4.10
2022-08-26T23:06:21.898Z,3.93
2022-08-26T23:08:49.518Z,3.90
2022-08-26T23:11:17.324Z,3.70
2022-08-26T23:13:44.898Z,4.37
2022-08-26T23:16:14.171Z,4.00
2022-08-26T23:18:42.092Z,3.73
2022-08-26T23:21:10.460Z,3.50
2022-08-26T23:23:38.246Z,4.00
2022-08-26T23:26:06.471Z,3.77
2022-08-26T23:28:34.400Z,4.30
2022-08-26T23:31:02.752Z,3.67
2022-08-26T23:33:45.590Z,3.70
2022-08-26T23:36:17.466Z,4.07
2022-08-26T23:38:48.123Z,4.63
2022-08-26T23:41:20.128Z,3.97
2022-08-26T23:43:47.711Z,4.53
2022-08-26T23:46:15.379Z,3.93
2022-08-26T23:48:44.403Z,3.50
2022-08-26T23:51:29.421Z,3.40
2022-08-26T23:53:57.770Z,3.33
2022-08-26T23:56:26.747Z,2.93
2022-08-26T23:58:54.581Z,3.10
